createdAt,value
2022-08-05T03:38:33.310Z,19.03
2022-08-05T03:41:46.670Z,19.03
2022-08-05T03:44:49.502Z,18.49
2022-08-05T03:47:56.827Z,18.49
2022-08-05T03:52:35.126Z,18.54
2022-08-05T03:56:04.122Z,18.67
2022-08-05T03:58:19.324Z,18.80
2022-08-05T04:01:23.934Z,18.93
2022-08-05T04:04:30.752Z,19.07
2022-08-05T04:07:34.436Z,19.18
2022-08-05T04:10:58.653Z,19.28
2022-08-05T04:14:01.698Z,19.39
2022-08-05T04:17:04.981Z,19.48
2022-08-05T04:20:18.080Z,19.57
2022-08-05T04:24:05.597Z,19.68
2022-08-05T04:26:50.612Z,19.78
2022-08-05T04:29:53.918Z,19.90
2022-08-05T04:32:56.571Z,20.03
2022-08-05T04:36:15.551Z,20.20
2022-08-05T04:39:21.880Z,20.33
2022-08-05T04:42:27.833Z,20.48
2022-08-05T04:45:47.854Z,20.64
2022-08-05T04:48:52.017Z,20.81
2022-08-05T04:52:00.171Z,20.98
2022-08-05T04:55:14.234Z,21.15
2022-08-05T04:58:21.590Z,21.32
2022-08-05T05:02:05.471Z,21.48
2022-08-05T05:04:49.754Z,21.64
2022-08-05T05:07:56.383Z,21.80
2022-08-05T05:11:03.951Z,21.94
2022-08-05T05:14:08.727Z,22.09
2022-08-05T05:17:23.882Z,22.24
2022-08-05T05:20:28.542Z,22.42
2022-08-05T05:24:02.310Z,22.58
2022-08-05T05:26:54.583Z,22.76
2022-08-05T05:30:04.624Z,22.94
2022-08-05T05:33:16.092Z,23.11
2022-08-05T05:36:19.366Z,23.24
2022-08-05T05:39:22.611Z,23.41
2022-08-05T05:42:26.364Z,23.53
2022-08-05T05:45:29.760Z,23.72
2022-08-05T05:48:32.409Z,23.80
2022-08-05T05:51:50.664Z,23.96
2022-08-05T05:54:53.464Z,24.13
2022-08-05T05:57:56.307Z,24.23
2022-08-05T06:01:13.226Z,24.35
2022-08-05T06:04:18.495Z,24.48
2022-08-05T06:07:41.221Z,24.59
2022-08-05T06:10:49.223Z,24.73
2022-08-05T06:13:58.078Z,24.86
2022-08-05T06:17:22.655Z,25.02
2022-08-05T06:20:25.977Z,25.17
2022-08-05T06:23:43.989Z,25.35
2022-08-05T06:26:52.094Z,25.52
2022-08-05T06:30:04.254Z,25.71
2022-08-05T06:33:10.722Z,25.88
2022-08-05T06:36:13.725Z,26.05
2022-08-05T06:39:18.825Z,26.18
2022-08-05T06:42:25.322Z,26.27
2022-08-05T06:45:44.692Z,26.31
2022-08-05T06:48:58.793Z,26.40
2022-08-05T06:52:01.984Z,26.58
2022-08-05T06:55:05.829Z,26.76
2022-08-05T06:58:29.645Z,26.88
2022-08-05T07:01:33.154Z,27.04
2022-08-05T07:04:36.447Z,27.20
2022-08-05T07:07:43.814Z,27.28
2022-08-05T07:10:53.034Z,27.34
2022-08-05T07:14:20.793Z,27.45
2022-08-05T07:18:01.237Z,27.64
2022-08-05T07:20:55.981Z,27.78
2022-08-05T07:23:58.799Z,27.89
2022-08-05T07:27:04.560Z,28.13
2022-08-05T07:30:27.677Z,28.26
2022-08-05T07:33:36.501Z,28.36
2022-08-05T07:36:40.017Z,28.55
2022-08-05T07:40:27.082Z,28.73
2022-08-05T07:43:14.543Z,28.83
2022-08-05T07:46:29.510Z,29.05
2022-08-05T07:49:33.672Z,29.16
2022-08-05T07:52:46.709Z,29.30
2022-08-05T07:56:05.305Z,29.39
2022-08-05T07:59:13.176Z,29.59
2022-08-05T08:02:17.914Z,29.74
2022-08-05T08:05:21.144Z,29.92
2022-08-05T08:08:24.331Z,30.12
2022-08-05T08:11:47.824Z,30.26
2022-08-05T08:14:52.776Z,30.37
2022-08-05T08:17:55.671Z,30.46
2022-08-05T08:21:09.721Z,30.57
2022-08-05T08:24:20.423Z,30.65
2022-08-05T08:27:45.030Z,30.75
2022-08-05T08:30:50.686Z,30.92
2022-08-05T08:33:53.539Z,31.08
2022-08-05T08:37:03.150Z,31.09
2022-08-05T08:40:08.063Z,31.26
2022-08-05T08:44:56.485Z,31.41
2022-08-05T08:46:36.053Z,31.48
2022-08-05T08:50:23.369Z,31.43
2022-08-05T08:53:12.145Z,31.55
2022-08-05T08:56:16.509Z,31.65
2022-08-05T08:59:21.311Z,31.72
2022-08-05T09:02:25.536Z,31.85
2022-08-05T09:05:38.631Z,31.94
2022-08-05T09:08:52.585Z,31.97
2022-08-05T09:12:01.222Z,32.10
2022-08-05T09:15:12.207Z,32.26
2022-08-05T09:18:17.732Z,32.44
2022-08-05T09:22:17.761Z,32.54
2022-08-05T09:24:58.193Z,32.68
2022-08-05T09:28:21.228Z,32.84
2022-08-05T09:32:41.064Z,32.92
2022-08-05T09:34:52.647Z,33.02
2022-08-05T09:38:16.648Z,33.07
2022-08-05T09:41:19.783Z,33.10
2022-08-05T09:44:40.272Z,33.13
2022-08-05T09:47:55.227Z,33.19
2022-08-05T09:51:14.814Z,33.25
2022-08-05T09:54:31.022Z,33.48
2022-08-05T09:57:35.359Z,33.49
2022-08-05T10:00:53.769Z,33.42
2022-08-05T10:04:00.399Z,33.38
2022-08-05T10:07:19.632Z,33.59
2022-08-05T10:10:37.827Z,33.70
2022-08-05T10:13:47.144Z,33.89
2022-08-05T10:16:53.337Z,34.11
2022-08-05T10:20:03.795Z,34.28
2022-08-05T10:23:34.516Z,34.20
2022-08-05T10:26:51.415Z,34.33
2022-08-05T10:31:21.102Z,34.60
2022-08-05T10:33:18.054Z,34.55
2022-08-05T10:36:23.684Z,34.68
2022-08-05T10:40:03.888Z,34.77
2022-08-05T10:43:07.334Z,34.87
2022-08-05T10:46:18.589Z,34.85
2022-08-05T10:49:33.364Z,34.95
2022-08-05T10:52:58.512Z,35.05
2022-08-05T10:56:21.177Z,35.18
2022-08-05T11:00:02.874Z,35.12
2022-08-05T11:02:59.072Z,35.14
2022-08-05T11:06:21.708Z,35.11
2022-08-05T11:09:46.767Z,35.58
2022-08-05T11:12:54.398Z,35.63
2022-08-05T11:16:21.625Z,35.92
2022-08-05T11:20:10.418Z,36.16
2022-08-05T11:22:58.054Z,36.01
2022-08-05T11:26:09.173Z,35.97
2022-08-05T11:29:42.681Z,36.31
2022-08-05T11:32:45.123Z,36.51
2022-08-05T11:36:07.983Z,36.79
2022-08-05T11:39:14.768Z,36.97
2022-08-05T11:42:28.192Z,37.22
2022-08-05T11:46:23.477Z,37.25
2022-08-05T11:48:54.887Z,37.35
2022-08-05T11:51:57.904Z,37.77
2022-08-05T11:55:07.519Z,38.04
2022-08-05T11:58:11.995Z,38.34
2022-08-05T12:01:19.176Z,38.93
2022-08-05T12:04:22.855Z,39.10
2022-08-05T12:08:03.823Z,39.34
2022-08-05T12:11:05.727Z,39.95
2022-08-05T12:14:10.266Z,40.01
2022-08-05T12:18:00.805Z,40.41
2022-08-05T12:20:38.709Z,42.62
2022-08-05T12:23:57.454Z,45.39
2022-08-05T12:27:09.456Z,46.96
2022-08-05T12:30:15.590Z,47.92
2022-08-05T12:33:27.498Z,48.66
2022-08-05T12:36:40.030Z,49.53
2022-08-05T12:39:51.100Z,51.03
2022-08-05T12:42:55.956Z,51.81
2022-08-05T12:45:58.520Z,52.20
2022-08-05T12:49:05.870Z,52.85
2022-08-05T12:52:25.308Z,53.90
2022-08-05T12:55:32.911Z,55.01
2022-08-05T12:58:51.343Z,54.74
2022-08-05T13:02:07.859Z,55.06
2022-08-05T13:05:14.473Z,54.72
2022-08-05T13:08:18.503Z,56.74
2022-08-05T13:11:53.807Z,58.38
2022-08-05T13:15:13.715Z,57.70
2022-08-05T13:18:21.071Z,58.19
2022-08-05T13:21:28.319Z,58.75
2022-08-05T13:24:57.576Z,59.06
2022-08-05T13:28:05.071Z,58.69
2022-08-05T13:31:13.956Z,59.28
2022-08-05T13:34:22.809Z,59.57
2022-08-05T13:37:34.554Z,59.01
2022-08-05T13:40:51.362Z,60.13
2022-08-05T13:43:55.431Z,60.83
2022-08-05T13:47:02.456Z,61.72
2022-08-05T13:50:09.619Z,61.50
2022-08-05T13:53:15.798Z,61.72
2022-08-05T13:56:19.346Z,59.84
2022-08-05T13:59:24.468Z,59.31
2022-08-05T14:02:29.824Z,59.48
2022-08-05T14:06:24.594Z,59.16
2022-08-05T14:08:56.748Z,60.80
2022-08-05T14:12:17.157Z,61.79
2022-08-05T14:16:04.633Z,62.15
2022-08-05T14:18:43.785Z,61.69
2022-08-05T14:22:10.156Z,62.36
2022-08-05T14:25:21.967Z,62.22
2022-08-05T14:28:26.239Z,61.85
2022-08-05T14:31:54.232Z,61.76
2022-08-05T14:34:53.231Z,61.65
2022-08-05T14:37:57.533Z,61.64
2022-08-05T14:41:06.915Z,61.81
2022-08-05T14:44:20.392Z,61.86
2022-08-05T14:47:58.401Z,61.49
2022-08-05T14:50:46.792Z,62.39
2022-08-05T14:54:26.390Z,62.57
2022-08-05T14:57:14.276Z,61.85
2022-08-05T15:00:17.810Z,61.90
2022-08-05T15:03:23.064Z,61.34
2022-08-05T15:06:27.985Z,62.43
2022-08-05T15:09:52.875Z,62.65
2022-08-05T15:13:03.688Z,63.13
